createdAt,value
2018-12-05T00:00:42.735Z,11.03
2018-12-05T00:03:11.812Z,12.93
2018-12-05T00:05:40.941Z,10.83
2018-12-05T00:08:39.689Z,12.97
2018-12-05T00:11:07.956Z,12.70
2018-12-05T00:13:36.215Z,15.47
2018-12-05T00:16:04.597Z,13.60
2018-12-05T00:18:32.948Z,14.90
2018-12-05T00:21:01.183Z,12.67
2018-12-05T00:23:29.543Z,14.33
2018-12-05T00:25:57.819Z,14.37
2018-12-05T00:28:26.067Z,16.50
2018-12-05T00:30:54.392Z,14.20
2018-12-05T00:33:22.641Z,15.60
2018-12-05T00:35:50.908Z,13.93
2018-12-05T00:38:19.205Z,16.80
2018-12-05T00:40:47.553Z,14.90
2018-12-05T00:43:15.796Z,14.63
2018-12-05T00:45:44.115Z,15.30
2018-12-05T00:48:12.675Z,13.90
2018-12-05T00:50:40.972Z,16.67
2018-12-05T00:53:09.261Z,13.87
2018-12-05T00:55:37.527Z,15.47
2018-12-05T00:58:05.777Z,13.90
2018-12-05T01:00:34.140Z,15.90
2018-12-05T01:03:02.408Z,12.77
2018-12-05T01:05:30.614Z,14.47
2018-12-05T01:07:59.421Z,14.13
2018-12-05T01:10:27.651Z,14.97
2018-12-05T01:12:55.901Z,13.70
2018-12-05T01:15:24.262Z,14.17
2018-12-05T01:17:52.515Z,14.97
2018-12-05T01:20:20.792Z,16.00
2018-12-05T01:22:49.067Z,14.20
2018-12-05T01:25:17.420Z,13.57
2018-12-05T01:27:45.699Z,14.20
2018-12-05T01:30:13.966Z,13.73
2018-12-05T01:32:42.226Z,13.60
2018-12-05T01:35:10.481Z,13.17
2018-12-05T01:37:39.700Z,13.00
2018-12-05T01:40:08.030Z,12.47
2018-12-05T01:42:36.376Z,12.70
2018-12-05T01:45:05.145Z,11.87
2018-12-05T01:47:33.404Z,14.00
2018-12-05T01:50:01.705Z,11.63
2018-12-05T01:52:29.926Z,11.77
2018-12-05T01:54:58.757Z,12.67
2018-12-05T01:57:27.052Z,11.73
2018-12-05T01:59:55.437Z,11.87
2018-12-05T02:02:23.676Z,11.40
2018-12-05T02:04:51.956Z,12.53
2018-12-05T02:07:20.246Z,12.90
2018-12-05T02:09:48.548Z,11.90
2018-12-05T02:12:16.825Z,13.20
2018-12-05T02:14:45.336Z,11.90
2018-12-05T02:17:13.646Z,12.63
2018-12-05T02:19:41.955Z,12.60
2018-12-05T02:22:10.256Z,13.17
2018-12-05T02:24:38.504Z,13.10
2018-12-05T02:27:06.770Z,11.70
2018-12-05T02:29:40.701Z,11.67
2018-12-05T02:32:08.937Z,12.07
2018-12-05T02:34:37.377Z,14.23
2018-12-05T02:37:05.728Z,12.83
2018-12-05T02:39:33.980Z,10.90
2018-12-05T02:42:02.333Z,11.77
2018-12-05T02:44:30.573Z,14.13
2018-12-05T02:46:58.819Z,12.97
2018-12-05T02:49:28.213Z,12.13
2018-12-05T02:51:56.495Z,12.53
2018-12-05T02:54:24.780Z,12.83
2018-12-05T02:56:53.121Z,13.80
2018-12-05T02:59:21.377Z,13.20
2018-12-05T03:01:49.828Z,13.17
2018-12-05T03:04:18.177Z,14.67
2018-12-05T03:06:46.493Z,15.00
2018-12-05T03:09:14.753Z,14.97
2018-12-05T03:11:43.004Z,13.77
2018-12-05T03:14:11.354Z,15.30
2018-12-05T03:16:39.577Z,14.90
2018-12-05T03:19:08.008Z,14.23
2018-12-05T03:21:36.263Z,14.10
2018-12-05T03:24:04.562Z,16.13
2018-12-05T03:26:32.844Z,14.60
2018-12-05T03:29:01.099Z,14.93
2018-12-05T03:31:29.570Z,14.50
2018-12-05T03:33:57.927Z,14.63
2018-12-05T03:36:26.254Z,14.73
2018-12-05T03:38:54.569Z,12.73
2018-12-05T03:41:23.350Z,15.57
2018-12-05T03:43:51.693Z,15.83
2018-12-05T03:46:19.933Z,14.33
2018-12-05T03:48:48.265Z,15.57
2018-12-05T03:51:16.561Z,12.57
2018-12-05T03:53:44.849Z,14.63
2018-12-05T03:56:13.381Z,13.90
2018-12-05T03:58:41.717Z,13.20
2018-12-05T04:01:09.946Z,12.73
2018-12-05T04:03:38.230Z,13.77
2018-12-05T04:06:06.521Z,12.40
2018-12-05T04:08:34.837Z,13.10
2018-12-05T04:11:03.236Z,14.97
2018-12-05T04:13:31.695Z,12.27
2018-12-05T04:15:59.928Z,14.40
2018-12-05T04:18:28.214Z,13.17
2018-12-05T04:20:56.551Z,12.50
2018-12-05T04:23:25.392Z,13.30
2018-12-05T04:25:53.788Z,14.37
2018-12-05T04:28:22.300Z,12.33
2018-12-05T04:30:50.516Z,13.13
2018-12-05T04:33:18.796Z,13.60
2018-12-05T04:35:47.053Z,13.20
2018-12-05T04:38:15.302Z,13.30
2018-12-05T04:40:43.640Z,13.30
2018-12-05T04:43:11.999Z,13.73
2018-12-05T04:45:40.222Z,14.10
2018-12-05T04:48:08.511Z,17.30
2018-12-05T04:50:36.815Z,17.20
2018-12-05T04:53:05.050Z,17.20
2018-12-05T04:55:33.696Z,16.27
2018-12-05T04:58:01.938Z,20.17
2018-12-05T05:00:30.248Z,18.70
2018-12-05T05:02:59.606Z,17.43
2018-12-05T05:05:27.835Z,20.07
2018-12-05T05:07:56.092Z,18.27
2018-12-05T05:10:24.339Z,17.97
2018-12-05T05:12:52.619Z,17.40
2018-12-05T05:15:20.809Z,20.77
2018-12-05T05:17:49.186Z,18.40
2018-12-05T05:20:17.462Z,18.90
2018-12-05T05:22:46.236Z,19.10
2018-12-05T05:25:14.531Z,19.03
2018-12-05T05:27:45.970Z,16.70
2018-12-05T05:30:13.447Z,19.80
2018-12-05T05:32:41.657Z,16.80
2018-12-05T05:35:10.020Z,18.33
2018-12-05T05:37:38.417Z,17.17
2018-12-05T05:40:06.705Z,15.77
2018-12-05T05:42:34.952Z,19.30
2018-12-05T05:45:03.308Z,17.83
2018-12-05T05:47:31.641Z,18.87
2018-12-05T05:49:59.933Z,16.10
2018-12-05T05:52:28.152Z,19.00
2018-12-05T05:54:56.385Z,17.23
2018-12-05T05:57:24.674Z,17.80
2018-12-05T05:59:52.924Z,17.33
2018-12-05T06:02:21.183Z,17.33
2018-12-05T06:04:49.454Z,16.37
2018-12-05T06:07:17.744Z,17.70
2018-12-05T06:09:45.972Z,16.90
2018-12-05T06:12:14.308Z,17.67
2018-12-05T06:14:42.536Z,16.10
2018-12-05T06:17:10.773Z,16.53
2018-12-05T06:19:39.051Z,16.37
2018-12-05T06:22:07.304Z,17.10
2018-12-05T06:24:36.166Z,17.50
2018-12-05T06:27:04.413Z,16.30
2018-12-05T06:29:32.826Z,18.13
2018-12-05T06:32:01.133Z,15.23
2018-12-05T06:34:29.364Z,16.47
2018-12-05T06:36:58.784Z,16.93
2018-12-05T06:39:27.012Z,17.00
2018-12-05T06:41:55.829Z,15.63
2018-12-05T06:44:24.096Z,16.80
2018-12-05T06:46:52.626Z,16.47
2018-12-05T06:49:20.984Z,15.63
2018-12-05T06:51:49.308Z,17.37
2018-12-05T06:54:17.650Z,16.30
2018-12-05T06:56:45.980Z,16.93
2018-12-05T06:59:14.309Z,18.53
2018-12-05T07:01:42.676Z,16.07
2018-12-05T07:04:10.941Z,19.47
2018-12-05T07:06:39.246Z,17.20
2018-12-05T07:09:07.996Z,17.63
2018-12-05T07:11:36.375Z,18.17
2018-12-05T07:14:04.723Z,16.53
2018-12-05T07:16:32.986Z,16.17
2018-12-05T07:19:01.274Z,16.87
2018-12-05T07:21:29.512Z,15.53
2018-12-05T07:23:57.754Z,18.60
2018-12-05T07:26:26.012Z,17.10
2018-12-05T07:28:54.315Z,16.70
2018-12-05T07:31:22.535Z,16.33
2018-12-05T07:33:50.836Z,18.50
2018-12-05T07:36:19.149Z,17.40
2018-12-05T07:38:47.368Z,17.47
2018-12-05T07:41:15.641Z,16.70
2018-12-05T07:43:43.871Z,17.43
2018-12-05T07:46:12.163Z,18.20
2018-12-05T07:48:40.454Z,16.80
2018-12-05T07:51:08.716Z,17.60
2018-12-05T07:53:37.018Z,17.07
2018-12-05T07:56:05.255Z,16.50
2018-12-05T07:58:33.520Z,17.20
2018-12-05T08:01:01.926Z,16.37
2018-12-05T08:03:30.187Z,15.90
2018-12-05T08:05:58.439Z,16.10
2018-12-05T08:08:26.712Z,15.53
2018-12-05T08:10:54.961Z,16.93
2018-12-05T08:13:23.229Z,15.57
2018-12-05T08:18:17.911Z,15.50
2018-12-05T08:20:46.160Z,14.20
2018-12-05T08:23:14.517Z,15.53
2018-12-05T08:25:42.765Z,15.77
2018-12-05T08:28:12.127Z,15.97
2018-12-05T08:30:40.752Z,14.67
2018-12-05T08:33:09.452Z,14.00
2018-12-05T08:35:37.781Z,14.60
2018-12-05T08:38:06.013Z,15.63
2018-12-05T08:40:34.360Z,15.90
2018-12-05T08:43:02.795Z,15.30
2018-12-05T08:45:31.021Z,14.43
2018-12-05T08:47:59.417Z,14.70
2018-12-05T08:50:27.784Z,15.57
2018-12-05T08:52:56.043Z,14.50
2018-12-05T08:55:24.420Z,15.43
2018-12-05T08:57:52.738Z,15.27
2018-12-05T09:00:20.994Z,14.23
2018-12-05T09:02:49.320Z,13.80
2018-12-05T09:05:17.625Z,13.50
2018-12-05T09:07:45.863Z,13.33
2018-12-05T09:10:14.109Z,13.70
2018-12-05T09:12:42.361Z,12.77
2018-12-05T09:15:10.594Z,14.93
2018-12-05T09:17:38.846Z,12.97
2018-12-05T09:20:07.243Z,12.97
2018-12-05T09:22:41.269Z,13.43
2018-12-05T09:25:05.829Z,12.57
2018-12-05T09:27:34.101Z,12.40
2018-12-05T09:30:02.616Z,11.60
2018-12-05T09:32:30.870Z,11.63
2018-12-05T09:35:00.107Z,12.40
2018-12-05T09:37:28.377Z,13.57
2018-12-05T09:39:56.683Z,11.67
2018-12-05T09:42:24.912Z,12.40
2018-12-05T09:44:53.199Z,11.97
2018-12-05T09:47:21.418Z,12.83
2018-12-05T09:49:49.673Z,11.27
2018-12-05T09:52:17.916Z,11.13
2018-12-05T09:54:47.001Z,11.20
2018-12-05T09:57:15.227Z,13.83
2018-12-05T09:59:43.458Z,11.50
2018-12-05T10:02:11.751Z,13.13
2018-12-05T10:04:39.984Z,11.10
2018-12-05T10:07:08.322Z,10.47
2018-12-05T10:09:36.925Z,10.50
2018-12-05T10:12:05.249Z,10.70
2018-12-05T10:14:33.598Z,11.37
2018-12-05T10:17:02.092Z,12.70
2018-12-05T10:19:30.368Z,12.97
2018-12-05T10:21:58.762Z,11.23
2018-12-05T10:24:27.056Z,10.00
2018-12-05T10:26:55.487Z,9.93
2018-12-05T10:29:23.777Z,10.67
2018-12-05T10:31:52.346Z,9.93
2018-12-05T10:34:20.605Z,9.70
2018-12-05T10:36:49.027Z,9.33
2018-12-05T10:39:17.240Z,10.37
2018-12-05T10:41:45.569Z,10.40
2018-12-05T10:44:13.852Z,11.40
2018-12-05T10:46:42.157Z,11.13
2018-12-05T10:49:10.386Z,9.90
2018-12-05T10:51:38.709Z,11.10
2018-12-05T10:54:06.953Z,11.37
2018-12-05T10:56:35.854Z,12.70
2018-12-05T10:59:04.120Z,12.17
2018-12-05T11:01:38.166Z,13.40
2018-12-05T11:04:08.393Z,10.73
2018-12-05T11:06:42.416Z,11.77
2018-12-05T11:09:16.398Z,11.60
2018-12-05T11:11:50.216Z,12.20
2018-12-05T11:14:24.128Z,12.43
2018-12-05T11:16:54.954Z,11.90
2018-12-05T11:19:28.853Z,11.90
2018-12-05T11:22:02.839Z,11.40
2018-12-05T11:24:32.879Z,11.97
2018-12-05T11:27:01.138Z,13.27
2018-12-05T11:29:29.391Z,13.90
2018-12-05T11:31:57.635Z,13.43
2018-12-05T11:34:25.932Z,11.23
2018-12-05T11:36:54.260Z,11.83
2018-12-05T11:39:22.530Z,13.37
2018-12-05T11:41:50.821Z,12.07
2018-12-05T11:44:19.064Z,10.50
2018-12-05T11:46:48.558Z,13.50
2018-12-05T11:49:16.991Z,12.57
2018-12-05T11:51:46.040Z,13.50
2018-12-05T11:54:14.307Z,12.80
2018-12-05T11:56:42.767Z,12.30
2018-12-05T11:59:11.012Z,12.73
2018-12-05T12:01:39.260Z,13.13
2018-12-05T12:04:07.577Z,14.07
2018-12-05T12:06:35.865Z,13.80
2018-12-05T12:09:07.098Z,14.10
2018-12-05T12:11:35.380Z,13.40
2018-12-05T12:14:04.218Z,14.20
2018-12-05T12:16:32.611Z,15.20
2018-12-05T12:19:00.975Z,14.50
2018-12-05T12:21:29.213Z,15.00
2018-12-05T12:23:57.546Z,14.57
2018-12-05T12:26:32.968Z,13.53
2018-12-05T12:28:56.068Z,13.80
2018-12-05T12:31:24.331Z,14.77
2018-12-05T12:33:53.105Z,12.97
2018-12-05T12:36:21.356Z,13.13
2018-12-05T12:38:49.656Z,14.60
2018-12-05T12:41:17.943Z,13.47
2018-12-05T12:43:46.245Z,12.30
2018-12-05T12:46:14.503Z,13.27
2018-12-05T12:48:42.777Z,14.00
2018-12-05T12:51:11.080Z,13.30
2018-12-05T12:53:39.347Z,12.60
2018-12-05T12:56:07.749Z,13.30
2018-12-05T12:58:35.999Z,12.47
2018-12-05T13:01:04.234Z,13.13
2018-12-05T13:03:32.550Z,13.40
2018-12-05T13:06:00.787Z,13.80
2018-12-05T13:08:29.073Z,14.00
2018-12-05T13:10:57.395Z,13.20
2018-12-05T13:13:25.613Z,14.40
2018-12-05T13:15:53.877Z,13.33
2018-12-05T13:18:22.115Z,13.53
2018-12-05T13:20:50.362Z,13.83
2018-12-05T13:23:18.669Z,13.53
2018-12-05T13:25:46.925Z,12.70
2018-12-05T13:28:15.229Z,13.47
2018-12-05T13:30:43.640Z,13.20
2018-12-05T13:33:11.890Z,13.10
2018-12-05T13:35:40.162Z,13.43
2018-12-05T13:38:08.461Z,13.70
2018-12-05T13:40:36.692Z,14.10
2018-12-05T13:43:04.932Z,13.40
2018-12-05T13:45:33.340Z,13.83
2018-12-05T13:48:01.666Z,13.30
2018-12-05T13:50:29.875Z,13.73
2018-12-05T13:52:58.282Z,14.50
2018-12-05T13:55:26.541Z,12.70
2018-12-05T13:57:54.862Z,12.77
2018-12-05T14:00:23.306Z,13.10
2018-12-05T14:02:51.581Z,13.43
2018-12-05T14:05:19.897Z,12.80
2018-12-05T14:07:48.161Z,15.03
2018-12-05T14:10:16.460Z,13.30
2018-12-05T14:12:44.711Z,13.40
2018-12-05T14:15:13.025Z,13.63
2018-12-05T14:17:41.261Z,12.83
2018-12-05T14:20:09.694Z,13.07
2018-12-05T14:22:38.049Z,12.60
2018-12-05T14:25:06.844Z,13.10
2018-12-05T14:27:35.140Z,13.63
2018-12-05T14:30:05.040Z,11.80
2018-12-05T14:32:33.335Z,12.83
2018-12-05T14:35:01.609Z,11.77
2018-12-05T14:37:29.942Z,13.50
2018-12-05T14:39:58.136Z,13.03
2018-12-05T14:42:26.385Z,12.00
2018-12-05T14:44:54.690Z,14.53
2018-12-05T14:47:22.943Z,12.43
2018-12-05T14:49:51.215Z,13.67
2018-12-05T14:52:19.451Z,13.07
2018-12-05T14:54:47.744Z,13.20
2018-12-05T14:57:16.012Z,11.70
2018-12-05T14:59:44.294Z,12.10
2018-12-05T15:02:12.584Z,12.53
2018-12-05T15:04:41.873Z,12.23
2018-12-05T15:07:10.202Z,11.10
2018-12-05T15:09:38.438Z,11.83
2018-12-05T15:12:06.782Z,12.77
2018-12-05T15:14:35.007Z,11.70
2018-12-05T15:17:03.251Z,12.27
2018-12-05T15:19:31.501Z,12.20
2018-12-05T15:21:59.823Z,12.20
2018-12-05T15:24:28.117Z,12.27
2018-12-05T15:26:56.445Z,12.23
2018-12-05T15:29:25.775Z,10.90
2018-12-05T15:31:54.201Z,11.30
2018-12-05T15:34:22.458Z,11.83
2018-12-05T15:36:50.793Z,12.83
2018-12-05T15:39:20.112Z,11.93
2018-12-05T15:41:48.336Z,11.93
2018-12-05T15:44:16.575Z,11.80
2018-12-05T15:46:44.864Z,12.73
2018-12-05T15:49:13.219Z,12.13
2018-12-05T15:51:41.768Z,12.93
2018-12-05T15:54:10.042Z,12.20
2018-12-05T15:56:38.493Z,12.83
2018-12-05T15:59:06.741Z,12.53
2018-12-05T16:01:35.056Z,12.80
2018-12-05T16:04:03.377Z,13.17
2018-12-05T16:06:31.694Z,13.47
2018-12-05T16:09:00.023Z,12.50
2018-12-05T16:11:28.321Z,12.10
2018-12-05T16:13:56.546Z,12.13
2018-12-05T16:16:24.816Z,13.70
2018-12-05T16:18:53.088Z,12.30
2018-12-05T16:21:21.376Z,12.80
2018-12-05T16:23:49.725Z,13.30
2018-12-05T16:26:18.020Z,12.30
2018-12-05T16:28:46.312Z,13.97
2018-12-05T16:31:14.569Z,12.93
2018-12-05T16:33:42.832Z,12.90
2018-12-05T16:36:11.464Z,14.30
2018-12-05T16:38:40.060Z,14.10
2018-12-05T16:41:08.347Z,13.23
2018-12-05T16:43:36.720Z,14.07
2018-12-05T16:46:04.977Z,13.50
2018-12-05T16:48:33.259Z,13.63
2018-12-05T16:51:01.514Z,13.07
2018-12-05T16:53:29.760Z,13.57
2018-12-05T16:55:58.013Z,13.17
2018-12-05T16:58:26.335Z,12.50
2018-12-05T17:00:54.617Z,13.10
2018-12-05T17:03:22.872Z,14.20
2018-12-05T17:05:51.104Z,12.27
2018-12-05T17:08:19.361Z,12.70
2018-12-05T17:10:47.604Z,12.80
2018-12-05T17:13:15.857Z,12.53
2018-12-05T17:15:44.088Z,11.47
2018-12-05T17:18:12.415Z,13.30
2018-12-05T17:20:40.661Z,12.90
2018-12-05T17:23:08.905Z,12.27
2018-12-05T17:25:37.240Z,11.70
2018-12-05T17:28:05.612Z,12.60
2018-12-05T17:30:33.874Z,12.43
2018-12-05T17:33:02.240Z,13.20
2018-12-05T17:35:30.642Z,12.03
2018-12-05T17:37:58.936Z,11.60
2018-12-05T17:40:27.217Z,12.83
2018-12-05T17:42:55.476Z,12.13
2018-12-05T17:45:23.728Z,12.87
2018-12-05T17:47:51.956Z,14.50
2018-12-05T17:50:20.422Z,12.87
2018-12-05T17:52:48.677Z,12.80
2018-12-05T17:55:17.000Z,12.67
2018-12-05T17:57:45.708Z,12.70
2018-12-05T18:00:13.977Z,12.90
2018-12-05T18:02:42.206Z,12.43
2018-12-05T18:05:10.499Z,14.10
2018-12-05T18:07:38.784Z,12.90
2018-12-05T18:10:07.916Z,13.23
2018-12-05T18:12:36.157Z,12.83
2018-12-05T18:15:04.637Z,11.90
2018-12-05T18:17:32.855Z,12.83
2018-12-05T18:20:01.125Z,12.57
2018-12-05T18:22:29.408Z,13.30
2018-12-05T18:24:57.720Z,11.60
2018-12-05T18:27:26.043Z,12.63
2018-12-05T18:29:54.327Z,12.37
2018-12-05T18:32:22.544Z,12.70
2018-12-05T18:34:50.830Z,13.10
2018-12-05T18:37:19.592Z,12.37
2018-12-05T18:39:47.836Z,11.80
2018-12-05T18:42:16.126Z,12.50
2018-12-05T18:44:45.009Z,12.80
2018-12-05T18:47:13.308Z,12.93
2018-12-05T18:49:41.639Z,10.70
2018-12-05T18:52:09.925Z,13.20
2018-12-05T18:54:38.157Z,12.23
2018-12-05T18:57:09.525Z,11.63
2018-12-05T18:59:36.700Z,11.50
2018-12-05T19:02:05.226Z,11.97
2018-12-05T19:04:33.833Z,11.07
2018-12-05T19:07:02.142Z,11.97
2018-12-05T19:09:30.368Z,11.10
2018-12-05T19:11:59.258Z,12.10
2018-12-05T19:14:33.341Z,11.67
2018-12-05T19:17:01.619Z,13.33
2018-12-05T19:19:29.927Z,12.87
2018-12-05T19:21:58.290Z,12.10
2018-12-05T19:24:26.538Z,12.10
2018-12-05T19:26:54.805Z,13.60
2018-12-05T19:29:23.420Z,12.70
2018-12-05T19:31:52.196Z,12.23
2018-12-05T19:34:20.504Z,13.00
2018-12-05T19:36:48.834Z,13.10
2018-12-05T19:39:17.132Z,13.50
2018-12-05T19:41:45.558Z,14.47
2018-12-05T19:44:13.827Z,14.60
2018-12-05T19:46:42.154Z,12.87
2018-12-05T19:49:10.584Z,13.50
2018-12-05T19:51:38.987Z,12.87
2018-12-05T19:54:07.279Z,13.93
2018-12-05T19:56:35.772Z,14.53
2018-12-05T19:59:04.052Z,12.00
2018-12-05T20:01:32.405Z,13.40
2018-12-05T20:04:00.692Z,14.10
2018-12-05T20:06:29.029Z,14.00
2018-12-05T20:08:57.340Z,13.70
2018-12-05T20:11:25.680Z,13.60
2018-12-05T20:13:54.011Z,14.10
2018-12-05T20:16:22.254Z,13.50
2018-12-05T20:18:50.579Z,13.60
2018-12-05T20:21:18.804Z,12.13
2018-12-05T20:23:47.185Z,13.27
2018-12-05T20:26:15.504Z,12.20
2018-12-05T20:28:43.825Z,12.23
2018-12-05T20:31:12.087Z,12.73
2018-12-05T20:33:40.321Z,10.10
2018-12-05T20:36:08.560Z,12.30
2018-12-05T20:38:37.813Z,12.63
2018-12-05T20:41:06.131Z,11.57
2018-12-05T20:43:34.442Z,11.23
2018-12-05T20:46:02.701Z,12.03
2018-12-05T20:48:31.914Z,12.87
2018-12-05T20:51:00.199Z,12.47
2018-12-05T20:53:28.407Z,13.40
2018-12-05T20:55:56.661Z,11.97
2018-12-05T20:58:24.923Z,12.70
2018-12-05T21:00:53.201Z,13.13
2018-12-05T21:03:21.446Z,13.03
2018-12-05T21:05:49.716Z,12.87
2018-12-05T21:08:18.174Z,11.90
2018-12-05T21:10:46.516Z,14.63
2018-12-05T21:13:15.764Z,11.53
2018-12-05T21:15:44.018Z,11.47
2018-12-05T21:18:12.291Z,11.17
2018-12-05T21:20:40.752Z,11.33
2018-12-05T21:23:09.060Z,11.93
2018-12-05T21:25:37.475Z,10.73
2018-12-05T21:28:06.071Z,12.00
2018-12-05T21:30:34.532Z,12.30
2018-12-05T21:33:02.804Z,11.80
2018-12-05T21:35:30.998Z,10.80
2018-12-05T21:37:59.296Z,11.90
2018-12-05T21:40:27.711Z,10.63
2018-12-05T21:42:56.140Z,9.37
2018-12-05T21:45:24.452Z,10.77
2018-12-05T21:47:52.706Z,10.53
2018-12-05T21:50:21.009Z,10.63
2018-12-05T21:52:49.276Z,10.37
2018-12-05T21:55:17.514Z,9.77
2018-12-05T21:57:46.072Z,10.70
2018-12-05T22:00:14.622Z,10.80
2018-12-05T22:02:42.928Z,10.33
2018-12-05T22:05:11.224Z,10.10
2018-12-05T22:07:39.465Z,9.57
2018-12-05T22:10:08.119Z,11.50
2018-12-05T22:12:36.577Z,10.53
2018-12-05T22:15:05.220Z,11.47
2018-12-05T22:17:33.942Z,11.93
2018-12-05T22:20:02.190Z,11.93
2018-12-05T22:22:30.437Z,11.30
2018-12-05T22:24:59.001Z,10.20
2018-12-05T22:27:27.299Z,12.40
2018-12-05T22:29:55.552Z,10.70
2018-12-05T22:32:23.856Z,10.60
2018-12-05T22:34:52.158Z,9.67
2018-12-05T22:37:20.404Z,11.10
2018-12-05T22:39:48.659Z,11.50
2018-12-05T22:42:16.920Z,10.57
2018-12-05T22:44:45.236Z,10.67
2018-12-05T22:47:13.509Z,12.17
2018-12-05T22:49:41.862Z,10.43
2018-12-05T22:52:10.096Z,11.50
2018-12-05T22:54:38.415Z,11.37
2018-12-05T22:57:12.985Z,11.70
2018-12-05T22:59:41.379Z,12.40
2018-12-05T23:02:09.740Z,12.27
2018-12-05T23:04:38.000Z,13.03
2018-12-05T23:07:06.400Z,13.13
2018-12-05T23:09:34.732Z,12.63
2018-12-05T23:12:03.196Z,13.93
2018-12-05T23:14:31.427Z,11.90
2018-12-05T23:16:59.667Z,11.17
2018-12-05T23:19:28.159Z,11.90
2018-12-05T23:21:56.548Z,13.63
2018-12-05T23:24:24.852Z,13.47
2018-12-05T23:26:54.836Z,12.83
2018-12-05T23:29:23.423Z,13.90
2018-12-05T23:31:51.662Z,12.67
2018-12-05T23:34:19.987Z,13.30
2018-12-05T23:36:48.306Z,12.80
2018-12-05T23:39:16.575Z,13.50
2018-12-05T23:41:44.826Z,14.10
2018-12-05T23:44:13.079Z,13.07
2018-12-05T23:46:41.353Z,13.23
2018-12-05T23:49:09.648Z,13.90
2018-12-05T23:51:38.047Z,12.23
2018-12-05T23:54:06.496Z,13.10
2018-12-05T23:56:34.753Z,12.77
2018-12-05T23:59:03.026Z,13.77
